メインページ
METAR-TAF:

METAR-TAF

空港 :

Wiarton, オンタリオ州, カナダ

緯度: 44-45N, 経度: 081-06W, 海抜: 222m

現時点の気象観測

当レポートは34分前の02:00(UTC)に作成
北/北西の風 7kt、西/北西から北/北東の間で変化する
気温 -3°C
湿度 63%
気圧 1023 hPa
視程: 24.1km
高度3500ftの千切れ雲あり
小雪

METAR: CYVV 070200Z 33007KT 300V030 15SM -SN BKN035 M03/M09 A3020 RMK SC7 SLP240

時間: 21:34 (02:34 UTC)

予報

当レポートは4時間19分前の22:15(UTC)に作成
予報は06日の 22時(UTC)から 06日の 24時(UTC)まで有効
北西の風 12kt、最大22ktの突風を伴う
視程: 1.2km
高度800ftの
弱いにわか雪, 高い地吹雪
06日の 22時(UTC)から 06日の 24時(UTC)まで一時的に
視程: 10km
高度3000ftの千切れ雲あり

TAF: CYVV 062215Z 0622/0624 31012G22KT 3/4SM -SHSN BLSN VV008 TEMPO 0622/0624 P6SM NSW BKN030 RMK NXT FCST WILL BE ISSUED AT 071145Z

4,000以上の空港の気象観測と天気予報(METAR報とTAF報)

利用可能な観測所は地図上に黄色い丸と赤い丸で示す。

丸の上にカーソルを重ねると観測所名を参照できる。

次にクリックすると気象観測と天気予報を参照できる。

マップの切り替え:黒色「×」印の緑ボタンをクリックして拡大、「-」印の緑ボタンをクリックして縮小、緑色の三角印をクリックして隣りの地図に切り替え


METAR-TAF: